sensor_id;sensor_type;location;lat;lon;timestamp;P1;durP1;ratioP1;P2;durP2;ratioP2
1975;SDS011;988;48.016;7.800;2023-03-13T17:20:30;7.22;;;6.82;;
1975;SDS011;988;48.016;7.800;2023-03-13T17:28:15;15.65;;;14.95;;
1975;SDS011;988;48.016;7.800;2023-03-13T17:30:41;18.50;;;17.70;;
1975;SDS011;988;48.016;7.800;2023-03-13T17:33:06;17.07;;;16.33;;
1975;SDS011;988;48.016;7.800;2023-03-13T17:35:32;16.70;;;15.90;;
1975;SDS011;988;48.016;7.800;2023-03-13T17:37:58;17.93;;;16.90;;
1975;SDS011;988;48.016;7.800;2023-03-13T17:40:27;16.60;;;15.90;;
1975;SDS011;988;48.016;7.800;2023-03-13T17:42:55;16.80;;;15.90;;
1975;SDS011;988;48.016;7.800;2023-03-13T17:45:22;16.77;;;16.00;;
1975;SDS011;988;48.016;7.800;2023-03-13T17:47:48;16.30;;;15.50;;
1975;SDS011;988;48.016;7.800;2023-03-13T17:52:47;16.73;;;16.03;;
1975;SDS011;988;48.016;7.800;2023-03-13T17:55:13;16.40;;;15.70;;
1975;SDS011;988;48.016;7.800;2023-03-13T17:57:39;16.73;;;15.70;;
1975;SDS011;988;48.016;7.800;2023-03-13T18:00:12;16.30;;;15.60;;
1975;SDS011;988;48.016;7.800;2023-03-13T18:02:40;16.37;;;15.67;;
1975;SDS011;988;48.016;7.800;2023-03-13T18:05:06;15.63;;;15.03;;
1975;SDS011;988;48.016;7.800;2023-03-13T18:07:31;15.90;;;15.20;;
1975;SDS011;988;48.016;7.800;2023-03-13T18:09:57;15.93;;;15.27;;
1975;SDS011;988;48.016;7.800;2023-03-13T18:12:22;15.03;;;14.43;;
1975;SDS011;988;48.016;7.800;2023-03-13T18:14:48;16.00;;;15.30;;
1975;SDS011;988;48.016;7.800;2023-03-13T18:19:44;15.97;;;15.10;;
1975;SDS011;988;48.016;7.800;2023-03-13T18:22:15;15.67;;;14.47;;
1975;SDS011;988;48.016;7.800;2023-03-13T18:24:42;14.67;;;14.07;;
1975;SDS011;988;48.016;7.800;2023-03-13T18:27:18;15.43;;;14.77;;
1975;SDS011;988;48.016;7.800;2023-03-13T18:29:46;14.23;;;13.63;;
1975;SDS011;988;48.016;7.800;2023-03-13T18:32:14;14.97;;;14.27;;
1975;SDS011;988;48.016;7.800;2023-03-13T18:34:41;14.70;;;14.00;;
1975;SDS011;988;48.016;7.800;2023-03-13T18:37:15;14.93;;;14.13;;
1975;SDS011;988;48.016;7.800;2023-03-13T18:39:44;14.90;;;14.10;;
1975;SDS011;988;48.016;7.800;2023-03-13T18:42:10;15.10;;;14.40;;
1975;SDS011;988;48.016;7.800;2023-03-13T18:44:36;15.37;;;14.57;;
1975;SDS011;988;48.016;7.800;2023-03-13T18:47:07;14.70;;;13.90;;
1975;SDS011;988;48.016;7.800;2023-03-13T18:49:38;13.40;;;12.90;;
1975;SDS011;988;48.016;7.800;2023-03-13T18:52:04;14.57;;;13.93;;
1975;SDS011;988;48.016;7.800;2023-03-13T18:54:30;15.40;;;14.30;;
1975;SDS011;988;48.016;7.800;2023-03-13T18:56:55;18.40;;;17.30;;
1975;SDS011;988;48.016;7.800;2023-03-13T18:59:21;18.10;;;17.10;;
1975;SDS011;988;48.016;7.800;2023-03-13T19:01:47;15.97;;;15.07;;
1975;SDS011;988;48.016;7.800;2023-03-13T19:04:13;16.03;;;15.13;;
1975;SDS011;988;48.016;7.800;2023-03-13T19:06:40;17.90;;;16.30;;
1975;SDS011;988;48.016;7.800;2023-03-13T19:09:14;16.30;;;15.50;;
1975;SDS011;988;48.016;7.800;2023-03-13T19:11:42;15.93;;;14.77;;
1975;SDS011;988;48.016;7.800;2023-03-13T19:14:08;16.43;;;15.43;;
1975;SDS011;988;48.016;7.800;2023-03-13T19:16:35;16.00;;;15.00;;
1975;SDS011;988;48.016;7.800;2023-03-13T19:19:12;14.90;;;14.00;;
1975;SDS011;988;48.016;7.800;2023-03-13T19:21:40;14.43;;;13.63;;
1975;SDS011;988;48.016;7.800;2023-03-13T19:24:08;16.77;;;15.47;;
1975;SDS011;988;48.016;7.800;2023-03-13T19:26:35;16.13;;;12.73;;
1975;SDS011;988;48.016;7.800;2023-03-13T19:29:04;17.37;;;15.90;;
1975;SDS011;988;48.016;7.800;2023-03-13T19:31:36;26.87;;;24.57;;
1975;SDS011;988;48.016;7.800;2023-03-13T19:34:01;9.40;;;8.60;;
1975;SDS011;988;48.016;7.800;2023-03-13T19:36:28;12.00;;;10.40;;
1975;SDS011;988;48.016;7.800;2023-03-13T19:38:56;10.87;;;10.17;;
1975;SDS011;988;48.016;7.800;2023-03-13T19:41:22;15.00;;;14.23;;
1975;SDS011;988;48.016;7.800;2023-03-13T19:43:47;14.60;;;13.87;;
1975;SDS011;988;48.016;7.800;2023-03-13T19:48:43;14.18;;;13.57;;
1975;SDS011;988;48.016;7.800;2023-03-13T19:51:09;13.53;;;12.87;;
1975;SDS011;988;48.016;7.800;2023-03-13T19:53:34;14.20;;;13.50;;
1975;SDS011;988;48.016;7.800;2023-03-13T19:56:00;11.73;;;11.13;;
1975;SDS011;988;48.016;7.800;2023-03-13T19:58:25;11.80;;;11.10;;
1975;SDS011;988;48.016;7.800;2023-03-13T20:00:51;12.03;;;11.53;;
1975;SDS011;988;48.016;7.800;2023-03-13T20:03:16;13.43;;;12.83;;
1975;SDS011;988;48.016;7.800;2023-03-13T20:05:42;12.03;;;11.43;;
1975;SDS011;988;48.016;7.800;2023-03-13T20:08:08;12.33;;;11.83;;
1975;SDS011;988;48.016;7.800;2023-03-13T20:10:33;14.20;;;13.60;;
1975;SDS011;988;48.016;7.800;2023-03-13T20:12:59;15.37;;;14.67;;
1975;SDS011;988;48.016;7.800;2023-03-13T20:15:24;12.03;;;11.53;;
1975;SDS011;988;48.016;7.800;2023-03-13T20:17:50;12.27;;;11.57;;
1975;SDS011;988;48.016;7.800;2023-03-13T20:20:16;12.27;;;11.68;;
1975;SDS011;988;48.016;7.800;2023-03-13T20:22:42;10.10;;;9.50;;
1975;SDS011;988;48.016;7.800;2023-03-13T20:25:08;9.33;;;8.93;;
1975;SDS011;988;48.016;7.800;2023-03-13T20:27:34;10.23;;;9.50;;
1975;SDS011;988;48.016;7.800;2023-03-13T20:30:01;9.63;;;8.70;;
1975;SDS011;988;48.016;7.800;2023-03-13T20:35:12;10.20;;;9.50;;
1975;SDS011;988;48.016;7.800;2023-03-13T20:37:41;9.80;;;9.30;;
1975;SDS011;988;48.016;7.800;2023-03-13T20:40:07;7.15;;;6.75;;
1975;SDS011;988;48.016;7.800;2023-03-13T20:42:37;7.03;;;6.70;;
1975;SDS011;988;48.016;7.800;2023-03-13T20:45:04;7.60;;;7.20;;
1975;SDS011;988;48.016;7.800;2023-03-13T20:47:32;7.30;;;6.80;;
1975;SDS011;988;48.016;7.800;2023-03-13T20:49:58;7.65;;;7.25;;
1975;SDS011;988;48.016;7.800;2023-03-13T20:52:24;8.23;;;7.77;;
1975;SDS011;988;48.016;7.800;2023-03-13T20:54:49;9.20;;;8.77;;
1975;SDS011;988;48.016;7.800;2023-03-13T20:57:15;11.60;;;10.73;;
1975;SDS011;988;48.016;7.800;2023-03-13T20:59:43;11.00;;;10.40;;
1975;SDS011;988;48.016;7.800;2023-03-13T21:02:09;10.93;;;10.43;;
1975;SDS011;988;48.016;7.800;2023-03-13T21:04:36;11.85;;;11.25;;
1975;SDS011;988;48.016;7.800;2023-03-13T21:07:01;12.73;;;11.70;;
1975;SDS011;988;48.016;7.800;2023-03-13T21:09:31;10.25;;;9.73;;
1975;SDS011;988;48.016;7.800;2023-03-13T21:12:01;9.85;;;9.45;;
1975;SDS011;988;48.016;7.800;2023-03-13T21:14:28;7.88;;;7.47;;
1975;SDS011;988;48.016;7.800;2023-03-13T21:16:53;7.72;;;7.13;;
1975;SDS011;988;48.016;7.800;2023-03-13T21:19:19;7.10;;;6.60;;
1975;SDS011;988;48.016;7.800;2023-03-13T21:21:45;5.20;;;4.90;;
1975;SDS011;988;48.016;7.800;2023-03-13T21:24:10;4.30;;;4.00;;
1975;SDS011;988;48.016;7.800;2023-03-13T21:26:36;5.97;;;5.57;;
1975;SDS011;988;48.016;7.800;2023-03-13T21:29:02;4.90;;;4.60;;
1975;SDS011;988;48.016;7.800;2023-03-13T21:31:27;5.60;;;5.30;;
1975;SDS011;988;48.016;7.800;2023-03-13T21:33:53;7.70;;;7.30;;
1975;SDS011;988;48.016;7.800;2023-03-13T21:36:20;9.52;;;8.93;;
1975;SDS011;988;48.016;7.800;2023-03-13T21:38:47;9.68;;;9.15;;
1975;SDS011;988;48.016;7.800;2023-03-13T21:41:15;9.80;;;9.25;;
1975;SDS011;988;48.016;7.800;2023-03-13T21:43:43;8.30;;;7.90;;
1975;SDS011;988;48.016;7.800;2023-03-13T21:46:12;7.78;;;7.38;;
1975;SDS011;988;48.016;7.800;2023-03-13T21:48:40;8.95;;;8.55;;
1975;SDS011;988;48.016;7.800;2023-03-13T21:51:07;9.30;;;8.90;;
1975;SDS011;988;48.016;7.800;2023-03-13T21:53:33;9.50;;;9.10;;
1975;SDS011;988;48.016;7.800;2023-03-13T21:55:59;9.38;;;8.68;;
1975;SDS011;988;48.016;7.800;2023-03-13T21:58:25;9.13;;;8.73;;
1975;SDS011;988;48.016;7.800;2023-03-13T22:00:54;8.57;;;8.17;;
1975;SDS011;988;48.016;7.800;2023-03-13T22:03:21;8.25;;;7.93;;
1975;SDS011;988;48.016;7.800;2023-03-13T22:05:47;8.98;;;8.57;;
1975;SDS011;988;48.016;7.800;2023-03-13T22:08:14;8.77;;;8.48;;
1975;SDS011;988;48.016;7.800;2023-03-13T22:10:45;8.50;;;7.90;;
1975;SDS011;988;48.016;7.800;2023-03-13T22:13:11;8.55;;;8.15;;
1975;SDS011;988;48.016;7.800;2023-03-13T22:15:37;8.43;;;8.00;;
1975;SDS011;988;48.016;7.800;2023-03-13T22:18:03;6.60;;;6.30;;
1975;SDS011;988;48.016;7.800;2023-03-13T22:20:29;7.43;;;7.03;;
1975;SDS011;988;48.016;7.800;2023-03-13T22:22:55;5.47;;;5.18;;
1975;SDS011;988;48.016;7.800;2023-03-13T22:25:20;5.17;;;4.80;;
1975;SDS011;988;48.016;7.800;2023-03-13T22:27:46;3.97;;;3.67;;
1975;SDS011;988;48.016;7.800;2023-03-13T22:30:12;3.60;;;3.30;;
1975;SDS011;988;48.016;7.800;2023-03-13T22:32:38;7.20;;;2.50;;
1975;SDS011;988;48.016;7.800;2023-03-13T22:35:03;2.70;;;2.10;;
1975;SDS011;988;48.016;7.800;2023-03-13T22:37:29;2.35;;;2.25;;
1975;SDS011;988;48.016;7.800;2023-03-13T22:39:55;2.30;;;2.10;;
1975;SDS011;988;48.016;7.800;2023-03-13T22:42:21;3.13;;;2.83;;
1975;SDS011;988;48.016;7.800;2023-03-13T22:44:47;2.70;;;2.50;;
1975;SDS011;988;48.016;7.800;2023-03-13T22:47:13;2.10;;;2.00;;
1975;SDS011;988;48.016;7.800;2023-03-13T22:49:38;2.50;;;2.40;;
1975;SDS011;988;48.016;7.800;2023-03-13T22:52:04;3.23;;;3.03;;
1975;SDS011;988;48.016;7.800;2023-03-13T22:54:30;2.60;;;2.40;;
1975;SDS011;988;48.016;7.800;2023-03-13T22:56:55;4.03;;;2.30;;
1975;SDS011;988;48.016;7.800;2023-03-13T22:59:21;3.00;;;2.90;;
1975;SDS011;988;48.016;7.800;2023-03-13T23:01:47;3.33;;;3.23;;
1975;SDS011;988;48.016;7.800;2023-03-13T23:04:13;5.77;;;5.17;;
1975;SDS011;988;48.016;7.800;2023-03-13T23:06:39;6.53;;;6.22;;
1975;SDS011;988;48.016;7.800;2023-03-13T23:09:05;7.05;;;6.65;;
1975;SDS011;988;48.016;7.800;2023-03-13T23:11:31;7.57;;;7.07;;
1975;SDS011;988;48.016;7.800;2023-03-13T23:13:57;6.85;;;6.47;;
1975;SDS011;988;48.016;7.800;2023-03-13T23:16:23;9.77;;;9.37;;
1975;SDS011;988;48.016;7.800;2023-03-13T23:18:48;8.60;;;8.30;;
1975;SDS011;988;48.016;7.800;2023-03-13T23:21:14;9.47;;;8.97;;
1975;SDS011;988;48.016;7.800;2023-03-13T23:23:41;10.10;;;9.60;;
1975;SDS011;988;48.016;7.800;2023-03-13T23:26:08;11.38;;;10.88;;
1975;SDS011;988;48.016;7.800;2023-03-13T23:28:36;13.15;;;12.48;;
1975;SDS011;988;48.016;7.800;2023-03-13T23:31:09;12.65;;;12.10;;
1975;SDS011;988;48.016;7.800;2023-03-13T23:33:46;11.57;;;11.07;;
1975;SDS011;988;48.016;7.800;2023-03-13T23:36:14;11.00;;;10.45;;
1975;SDS011;988;48.016;7.800;2023-03-13T23:38:41;11.38;;;10.77;;
1975;SDS011;988;48.016;7.800;2023-03-13T23:41:09;9.40;;;9.00;;
1975;SDS011;988;48.016;7.800;2023-03-13T23:43:36;8.10;;;7.80;;
1975;SDS011;988;48.016;7.800;2023-03-13T23:46:02;10.30;;;9.90;;
1975;SDS011;988;48.016;7.800;2023-03-13T23:48:30;9.57;;;9.18;;
1975;SDS011;988;48.016;7.800;2023-03-13T23:50:56;10.32;;;9.82;;
1975;SDS011;988;48.016;7.800;2023-03-13T23:53:22;11.27;;;10.77;;
1975;SDS011;988;48.016;7.800;2023-03-13T23:55:54;13.67;;;13.07;;
1975;SDS011;988;48.016;7.800;2023-03-13T23:58:23;14.50;;;13.70;;
